createdAt,value
2022-12-05T00:01:30.257Z,98426.69
2022-12-05T00:04:01.342Z,98432.53
2022-12-05T00:06:28.600Z,98426.94
2022-12-05T00:08:55.104Z,98423.44
2022-12-05T00:11:26.099Z,98424.78
2022-12-05T00:13:53.395Z,98425.28
2022-12-05T00:16:20.812Z,98429.28
2022-12-05T00:18:47.368Z,98422.09
2022-12-05T00:21:15.964Z,98410.06
2022-12-05T00:23:42.413Z,98412.72
2022-12-05T00:26:08.880Z,98414.88
2022-12-05T00:28:35.376Z,98413.28
2022-12-05T00:31:12.252Z,98412.72
2022-12-05T00:33:38.881Z,98411.63
2022-12-05T00:36:10.252Z,98411.91
2022-12-05T00:38:36.797Z,98414.84
2022-12-05T00:41:07.058Z,98412.16
2022-12-05T00:43:33.588Z,98408.94
2022-12-05T00:46:17.028Z,98398.81
2022-12-05T00:48:43.589Z,98404.41
2022-12-05T00:51:10.986Z,98409.44
2022-12-05T00:53:37.461Z,98402.50
2022-12-05T00:56:05.329Z,98404.09
2022-12-05T00:58:32.055Z,98405.16
2022-12-05T01:00:58.760Z,98398.22
2022-12-05T01:03:25.382Z,98396.84
2022-12-05T01:05:51.853Z,98398.19
2022-12-05T01:08:18.354Z,98393.38
2022-12-05T01:10:52.870Z,98396.28
2022-12-05T01:13:19.341Z,98402.69
2022-12-05T01:15:45.796Z,98397.88
2022-12-05T01:18:12.280Z,98392.81
2022-12-05T01:20:42.218Z,98392.00
2022-12-05T01:23:08.776Z,98396.25
2022-12-05T01:25:35.214Z,98395.97
2022-12-05T01:28:01.713Z,98400.75
2022-12-05T01:30:28.184Z,98403.91
2022-12-05T01:32:54.766Z,98403.13
2022-12-05T01:35:21.232Z,98403.34
2022-12-05T01:37:47.762Z,98399.63
2022-12-05T01:40:14.222Z,98397.22
2022-12-05T01:42:40.730Z,98395.88
2022-12-05T01:45:14.595Z,98398.78
2022-12-05T01:47:41.085Z,98398.25
2022-12-05T01:50:08.032Z,98402.22
2022-12-05T01:52:34.565Z,98401.69
2022-12-05T01:55:06.134Z,98402.75
2022-12-05T01:57:32.626Z,98403.25
2022-12-05T02:00:05.709Z,98391.78
2022-12-05T02:02:33.301Z,98397.09
2022-12-05T02:05:07.249Z,98398.69
2022-12-05T02:07:33.753Z,98401.09
2022-12-05T02:10:00.414Z,98406.41
2022-12-05T02:12:27.297Z,98406.41
2022-12-05T02:15:15.737Z,98403.75
2022-12-05T02:17:44.993Z,98403.22
2022-12-05T02:20:39.481Z,98405.34
2022-12-05T02:23:27.506Z,98404.25
2022-12-05T02:26:19.667Z,98407.16
2022-12-05T02:29:01.359Z,98409.53
2022-12-05T02:31:39.888Z,98407.09
2022-12-05T02:34:19.726Z,98411.09
2022-12-05T02:36:56.502Z,98410.31
2022-12-05T02:39:27.188Z,98410.00
2022-12-05T02:42:09.805Z,98407.59
2022-12-05T02:44:40.314Z,98407.84
2022-12-05T02:47:07.085Z,98407.31
2022-12-05T02:49:34.801Z,98400.38
2022-12-05T02:52:02.906Z,98407.78
2022-12-05T02:54:35.290Z,98404.81
2022-12-05T02:57:01.738Z,98407.47
2022-12-05T02:59:28.550Z,98402.69
2022-12-05T03:01:55.066Z,98404.19
2022-12-05T03:04:22.937Z,98408.94
2022-12-05T03:07:08.502Z,98408.16
2022-12-05T03:09:49.261Z,98410.56
2022-12-05T03:12:21.428Z,98410.06
2022-12-05T03:14:51.266Z,98402.34
2022-12-05T03:17:21.876Z,98405.28
2022-12-05T03:20:02.612Z,98407.16
2022-12-05T03:22:54.205Z,98402.34
2022-12-05T03:25:22.924Z,98406.28
2022-12-05T03:27:54.684Z,98404.69
2022-12-05T03:30:22.285Z,98406.00
2022-12-05T03:33:18.648Z,98405.44
2022-12-05T03:36:04.569Z,98404.09
2022-12-05T03:38:36.884Z,98399.91
2022-12-05T03:41:15.300Z,98408.91
2022-12-05T03:44:13.352Z,98394.81
2022-12-05T03:46:45.906Z,98401.72
2022-12-05T03:49:17.669Z,98400.69
2022-12-05T03:51:49.533Z,98395.38
2022-12-05T03:54:23.672Z,98390.28
2022-12-05T03:56:51.380Z,98393.22
2022-12-05T03:59:38.221Z,98397.16
2022-12-05T04:02:08.457Z,98395.81
2022-12-05T04:04:37.462Z,98387.28
2022-12-05T04:07:05.693Z,98396.63
2022-12-05T04:09:41.746Z,98395.56
2022-12-05T04:12:10.966Z,98401.16
2022-12-05T04:14:58.559Z,98392.88
2022-12-05T04:17:34.110Z,98402.22
2022-12-05T04:20:31.982Z,98404.00
2022-12-05T04:22:58.490Z,98398.41
2022-12-05T04:25:33.950Z,98393.31
2022-12-05T04:28:09.361Z,98392.50
2022-12-05T04:31:05.828Z,98391.72
2022-12-05T04:33:50.436Z,98386.66
2022-12-05T04:36:19.851Z,98395.44
2022-12-05T04:38:53.457Z,98394.63
2022-12-05T04:41:24.998Z,98396.50
2022-12-05T04:43:51.874Z,98397.78
2022-12-05T04:46:18.482Z,98402.31
2022-12-05T04:48:48.592Z,98407.63
2022-12-05T04:51:17.702Z,98402.31
2022-12-05T04:53:44.519Z,98401.75
2022-12-05T04:56:11.184Z,98401.75
2022-12-05T04:58:37.640Z,98397.47
2022-12-05T05:01:23.527Z,98395.88
2022-12-05T05:03:59.205Z,98392.16
2022-12-05T05:06:26.634Z,98395.06
2022-12-05T05:08:54.499Z,98398.53
2022-12-05T05:11:29.129Z,98398.53
2022-12-05T05:13:55.658Z,98393.75
2022-12-05T05:16:27.047Z,98403.31
2022-12-05T05:18:53.694Z,98404.59
2022-12-05T05:21:24.979Z,98407.53
2022-12-05T05:23:51.629Z,98398.97
2022-12-05T05:26:18.589Z,98397.38
2022-12-05T05:28:45.496Z,98394.97
2022-12-05T05:31:12.209Z,98389.94
2022-12-05T05:33:38.737Z,98399.50
2022-12-05T05:36:14.962Z,98398.19
2022-12-05T05:38:42.968Z,98406.16
2022-12-05T05:41:16.650Z,98398.97
2022-12-05T05:43:43.306Z,98388.59
2022-12-05T05:46:09.928Z,98401.41
2022-12-05T05:48:36.404Z,98403.25
2022-12-05T05:51:03.013Z,98408.00
2022-12-05T05:53:29.473Z,98412.25
2022-12-05T05:55:55.936Z,98421.06
2022-12-05T05:58:22.399Z,98420.25
2022-12-05T06:00:48.930Z,98419.44
2022-12-05T06:03:15.524Z,98419.44
2022-12-05T06:05:42.093Z,98417.59
2022-12-05T06:08:08.612Z,98420.50
2022-12-05T06:10:35.141Z,98421.31
2022-12-05T06:13:01.605Z,98424.75
2022-12-05T06:15:28.057Z,98423.97
2022-12-05T06:17:54.589Z,98432.72
2022-12-05T06:20:21.033Z,98429.53
2022-12-05T06:22:47.469Z,98427.94
2022-12-05T06:25:13.930Z,98430.03
2022-12-05T06:27:40.381Z,98431.09
2022-12-05T06:30:07.430Z,98436.09
2022-12-05T06:32:33.890Z,98433.69
2022-12-05T06:35:00.700Z,98427.00
2022-12-05T06:37:27.144Z,98437.41
2022-12-05T06:39:53.593Z,98429.38
2022-12-05T06:42:22.118Z,98432.31
2022-12-05T06:44:48.564Z,98437.41
2022-12-05T06:47:15.017Z,98438.19
2022-12-05T06:49:41.467Z,98439.81
2022-12-05T06:52:07.921Z,98445.91
2022-12-05T06:54:34.460Z,98450.44
2022-12-05T06:57:00.961Z,98444.31
2022-12-05T06:59:27.408Z,98449.63
2022-12-05T07:01:53.895Z,98440.81
2022-12-05T07:04:23.933Z,98454.41
2022-12-05T07:06:51.320Z,98440.28
2022-12-05T07:09:19.109Z,98444.81
2022-12-05T07:11:49.372Z,98452.22
2022-12-05T07:14:39.003Z,98452.22
2022-12-05T07:17:02.319Z,98456.75
2022-12-05T07:19:28.867Z,98458.84
2022-12-05T07:21:55.310Z,98451.38
2022-12-05T07:24:21.748Z,98453.22
2022-12-05T07:26:48.215Z,98455.88
2022-12-05T07:29:14.666Z,98460.16
2022-12-05T07:31:41.196Z,98462.00
2022-12-05T07:34:07.750Z,98455.88
2022-12-05T07:36:34.444Z,98459.53
2022-12-05T07:39:00.966Z,98453.63
2022-12-05T07:41:31.605Z,98460.84
2022-12-05T07:43:58.481Z,98455.81
2022-12-05T07:46:25.223Z,98459.47
2022-12-05T07:48:51.988Z,98463.50
2022-12-05T07:51:18.797Z,98454.97
2022-12-05T07:53:46.016Z,98462.41
2022-12-05T07:56:17.052Z,98454.69
2022-12-05T07:58:44.588Z,98464.25
2022-12-05T08:01:13.112Z,98461.84
2022-12-05T08:03:39.653Z,98467.16
2022-12-05T08:06:07.726Z,98468.19
2022-12-05T08:08:34.171Z,98463.69
2022-12-05T08:11:05.103Z,98470.84
2022-12-05T08:13:31.545Z,98471.66
2022-12-05T08:16:04.241Z,98472.47
2022-12-05T08:18:30.816Z,98471.41
2022-12-05T08:21:07.767Z,98475.31
2022-12-05T08:23:34.298Z,98479.28
2022-12-05T08:26:07.822Z,98474.25
2022-12-05T08:28:34.296Z,98477.22
2022-12-05T08:31:14.642Z,98486.56
2022-12-05T08:33:41.254Z,98488.91
2022-12-05T08:36:09.275Z,98484.13
2022-12-05T08:38:35.916Z,98486.19
2022-12-05T08:41:03.368Z,98490.69
2022-12-05T08:43:30.168Z,98490.03
2022-12-05T08:45:56.640Z,98486.06
2022-12-05T08:48:28.963Z,98495.41
2022-12-05T08:50:56.037Z,98493.78
2022-12-05T08:53:22.493Z,98496.47
2022-12-05T08:55:48.961Z,98493.47
2022-12-05T08:58:15.490Z,98488.41
2022-12-05T09:00:41.950Z,98497.41
2022-12-05T09:03:09.986Z,98488.09
2022-12-05T09:05:36.501Z,98481.59
2022-12-05T09:08:03.187Z,98501.59
2022-12-05T09:10:29.861Z,98496.63
2022-12-05T09:12:56.325Z,98500.31
2022-12-05T09:15:22.971Z,98500.88
2022-12-05T09:17:49.473Z,98492.91
2022-12-05T09:20:15.947Z,98496.38
2022-12-05T09:22:42.783Z,98485.44
2022-12-05T09:25:09.475Z,98500.88
2022-12-05T09:27:35.917Z,98495.00
2022-12-05T09:30:02.467Z,98501.13
2022-12-05T09:32:28.989Z,98497.13
2022-12-05T09:34:55.680Z,98498.22
2022-12-05T09:37:38.801Z,98500.88
2022-12-05T09:40:06.763Z,98505.56
2022-12-05T09:42:38.249Z,98502.34
2022-12-05T09:45:28.934Z,98505.00
2022-12-05T09:48:21.707Z,98513.53
2022-12-05T09:51:01.592Z,98504.84
2022-12-05T09:53:30.777Z,98505.38
2022-12-05T09:56:09.162Z,98511.75
2022-12-05T09:58:52.566Z,98507.50
2022-12-05T10:01:38.460Z,98505.31
2022-12-05T10:04:34.976Z,98498.16
2022-12-05T10:07:20.192Z,98493.91
2022-12-05T10:10:08.778Z,98497.03
2022-12-05T10:12:38.129Z,98497.59
2022-12-05T10:15:31.028Z,98499.94
2022-12-05T10:18:16.005Z,98490.38
2022-12-05T10:20:51.964Z,98489.56
2022-12-05T10:23:41.571Z,98499.63
2022-12-05T10:26:11.053Z,98496.22
2022-12-05T10:29:48.314Z,98500.53
2022-12-05T10:33:13.454Z,98500.00
2022-12-05T10:35:40.515Z,98479.81
2022-12-05T10:38:07.436Z,98494.94
2022-12-05T10:40:43.327Z,98490.44
2022-12-05T10:43:10.577Z,98496.00
2022-12-05T10:45:41.732Z,98488.84
2022-12-05T10:48:12.471Z,98493.34
2022-12-05T10:50:39.200Z,98488.84
2022-12-05T10:53:06.385Z,98483.28
2022-12-05T10:55:54.982Z,98490.19
2022-12-05T10:58:30.383Z,98485.94
2022-12-05T11:01:09.852Z,98492.03
2022-12-05T11:03:38.117Z,98477.16
2022-12-05T11:06:30.085Z,98470.00
2022-12-05T11:09:27.149Z,98477.69
2022-12-05T11:12:23.554Z,98484.88
2022-12-05T11:15:10.422Z,98480.06
2022-12-05T11:17:38.053Z,98484.59
2022-12-05T11:20:24.997Z,98482.41
2022-12-05T11:22:56.146Z,98472.03
2022-12-05T11:25:28.359Z,98480.22
2022-12-05T11:28:00.778Z,98477.56
2022-12-05T11:30:29.040Z,98478.09
2022-12-05T11:33:12.443Z,98473.06
2022-12-05T11:35:38.895Z,98469.38
2022-12-05T11:38:05.780Z,98470.25
2022-12-05T11:41:13.779Z,98464.69
2022-12-05T11:43:52.032Z,98465.53
2022-12-05T11:46:49.596Z,98469.00
2022-12-05T11:49:34.700Z,98465.84
2022-12-05T11:52:27.234Z,98464.00
2022-12-05T11:55:10.467Z,98460.28
2022-12-05T11:57:56.902Z,98459.75
2022-12-05T12:00:24.964Z,98456.03
2022-12-05T12:03:33.033Z,98458.13
2022-12-05T12:06:17.692Z,98461.84
2022-12-05T12:09:24.397Z,98463.69
2022-12-05T12:12:18.728Z,98457.81
2022-12-05T12:15:00.814Z,98455.66
2022-12-05T12:17:49.239Z,98457.44
2022-12-05T12:20:35.034Z,98462.94
2022-12-05T12:23:08.249Z,98460.50
2022-12-05T12:25:53.445Z,98463.50
2022-12-05T12:28:40.138Z,98450.47
2022-12-05T12:31:12.683Z,98448.88
2022-12-05T12:34:05.325Z,98455.19
2022-12-05T12:36:45.617Z,98458.69
2022-12-05T12:39:21.054Z,98450.94
2022-12-05T12:42:06.606Z,98439.78
2022-12-05T12:44:53.929Z,98449.81
2022-12-05T12:47:49.719Z,98442.66
2022-12-05T12:50:25.498Z,98448.53
2022-12-05T12:53:10.754Z,98445.97
2022-12-05T12:55:44.926Z,98442.88
2022-12-05T12:58:26.338Z,98444.44
2022-12-05T13:01:11.680Z,98449.16
2022-12-05T13:03:45.101Z,98454.78
2022-12-05T13:06:15.525Z,98453.06
2022-12-05T13:08:49.972Z,98461.91
2022-12-05T13:11:16.483Z,98461.16
2022-12-05T13:13:44.638Z,98450.03
2022-12-05T13:16:12.722Z,98450.22
2022-12-05T13:18:39.212Z,98452.88
2022-12-05T13:21:07.203Z,98449.47
2022-12-05T13:23:36.566Z,98451.56
2022-12-05T13:26:08.346Z,98450.78
2022-12-05T13:28:42.300Z,98444.66
2022-12-05T13:31:09.200Z,98452.06
2022-12-05T13:33:43.004Z,98458.69
2022-12-05T13:36:32.132Z,98463.50
2022-12-05T13:39:24.766Z,98461.19
2022-12-05T13:42:11.298Z,98458.41
2022-12-05T13:44:45.471Z,98459.00
2022-12-05T13:47:32.134Z,98456.34
2022-12-05T13:50:04.092Z,98474.19
2022-12-05T13:52:31.124Z,98479.78
2022-12-05T13:55:12.653Z,98482.22
2022-12-05T13:57:45.474Z,98480.47
2022-12-05T14:00:11.806Z,98476.03
2022-12-05T14:02:47.324Z,98474.41
2022-12-05T14:05:13.758Z,98474.88
2022-12-05T14:08:00.871Z,98471.31
2022-12-05T14:10:35.873Z,98469.41
2022-12-05T14:13:23.472Z,98465.41
2022-12-05T14:15:50.506Z,98465.09
2022-12-05T14:18:25.120Z,98471.75
2022-12-05T14:21:03.475Z,98463.22
2022-12-05T14:23:38.244Z,98463.97
2022-12-05T14:26:10.684Z,98462.34
2022-12-05T14:28:57.177Z,98473.50
2022-12-05T14:31:42.476Z,98471.44
2022-12-05T14:34:24.861Z,98470.16
2022-12-05T14:36:56.256Z,98467.84
2022-12-05T14:39:28.157Z,98467.75
2022-12-05T14:41:58.426Z,98466.50
2022-12-05T14:44:28.865Z,98471.16
2022-12-05T14:46:55.325Z,98469.41
2022-12-05T14:50:04.636Z,98467.06
2022-12-05T14:52:31.412Z,98467.31
2022-12-05T14:55:07.266Z,98469.66
2022-12-05T14:57:46.373Z,98471.25
2022-12-05T15:00:19.642Z,98468.84
2022-12-05T15:02:46.348Z,98468.16
2022-12-05T15:05:30.549Z,98469.50
2022-12-05T15:07:57.110Z,98474.41
2022-12-05T15:10:33.518Z,98478.78
2022-12-05T15:13:20.447Z,98483.13
2022-12-05T15:15:52.317Z,98481.28
2022-12-05T15:18:38.366Z,98485.09
2022-12-05T15:21:10.336Z,98480.13
2022-12-05T15:23:55.044Z,98486.84
2022-12-05T15:26:48.463Z,98484.47
2022-12-05T15:29:16.793Z,98487.91
2022-12-05T15:31:51.297Z,98492.41
2022-12-05T15:34:43.309Z,98496.44
2022-12-05T15:37:16.914Z,98482.59
2022-12-05T15:39:55.525Z,98489.25
2022-12-05T15:42:29.033Z,98493.59
2022-12-05T15:45:16.462Z,98488.50
2022-12-05T15:47:59.777Z,98487.97
2022-12-05T15:50:49.718Z,98497.84
2022-12-05T15:53:17.337Z,98497.28
2022-12-05T15:55:50.661Z,98490.13
2022-12-05T15:58:50.659Z,98507.16
2022-12-05T16:01:24.006Z,98507.16
2022-12-05T16:03:53.114Z,98510.09
2022-12-05T16:06:25.684Z,98509.31
2022-12-05T16:08:52.200Z,98506.09
2022-12-05T16:11:18.663Z,98503.69
2022-12-05T16:13:49.997Z,98506.09
2022-12-05T16:16:18.357Z,98507.94
2022-12-05T16:18:57.992Z,98511.97
2022-12-05T16:21:38.923Z,98509.81
2022-12-05T16:24:15.703Z,98510.69
2022-12-05T16:26:42.150Z,98514.13
2022-12-05T16:29:25.956Z,98514.38
2022-12-05T16:32:02.631Z,98514.63
2022-12-05T16:34:29.486Z,98512.47
2022-12-05T16:36:56.195Z,98515.19
2022-12-05T16:39:22.836Z,98511.22
2022-12-05T16:41:49.596Z,98516.81
2022-12-05T16:44:57.672Z,98512.53
2022-12-05T16:47:25.729Z,98513.59
2022-12-05T16:49:52.245Z,98514.47
2022-12-05T16:52:18.737Z,98518.44
2022-12-05T16:54:46.121Z,98514.47
2022-12-05T16:57:13.666Z,98514.72
2022-12-05T16:59:41.990Z,98513.63
2022-12-05T17:02:17.076Z,98504.06
2022-12-05T17:04:43.884Z,98498.47
2022-12-05T17:07:10.565Z,98505.72
2022-12-05T17:09:37.065Z,98511.88
2022-12-05T17:12:29.798Z,98511.38
2022-12-05T17:14:56.737Z,98506.06
2022-12-05T17:17:23.817Z,98510.31
2022-12-05T17:19:50.361Z,98507.13
2022-12-05T17:22:16.852Z,98509.53
2022-12-05T17:24:43.591Z,98517.81
2022-12-05T17:27:13.189Z,98516.22
2022-12-05T17:29:39.688Z,98513.28
2022-12-05T17:32:06.217Z,98514.34
2022-12-05T17:34:32.670Z,98516.22
2022-12-05T17:37:00.151Z,98509.28
2022-12-05T17:39:28.643Z,98507.16
2022-12-05T17:41:55.559Z,98507.69
2022-12-05T17:44:22.194Z,98510.88
2022-12-05T17:46:49.314Z,98522.88
2022-12-05T17:49:16.689Z,98516.50
2022-12-05T17:52:05.417Z,98526.13
2022-12-05T17:54:30.342Z,98524.50
2022-12-05T17:56:57.201Z,98526.38
2022-12-05T17:59:23.682Z,98526.13
2022-12-05T18:01:50.143Z,98529.56
2022-12-05T18:04:21.427Z,98532.53
2022-12-05T18:06:49.465Z,98532.84
2022-12-05T18:09:16.010Z,98535.50
2022-12-05T18:11:42.456Z,98543.50
2022-12-05T18:14:09.745Z,98549.88
2022-12-05T18:16:36.267Z,98542.66
2022-12-05T18:19:02.874Z,98539.47
2022-12-05T18:21:29.320Z,98545.03
2022-12-05T18:23:55.776Z,98551.19
2022-12-05T18:26:22.218Z,98541.84
2022-12-05T18:28:48.751Z,98553.09
2022-12-05T18:31:15.987Z,98539.50
2022-12-05T18:33:43.479Z,98556.06
2022-12-05T18:36:15.459Z,98555.78
2022-12-05T18:38:43.252Z,98552.03
2022-12-05T18:41:09.823Z,98558.44
2022-12-05T18:43:36.290Z,98553.34
2022-12-05T18:46:03.656Z,98557.09
2022-12-05T18:48:39.422Z,98554.94
2022-12-05T18:51:07.152Z,98558.94
2022-12-05T18:53:33.639Z,98564.84
2022-12-05T18:56:22.051Z,98565.63
2022-12-05T18:58:53.935Z,98560.03
2022-12-05T19:01:21.145Z,98559.22
2022-12-05T19:03:47.763Z,98559.72
2022-12-05T19:06:16.126Z,98566.91
2022-12-05T19:08:44.355Z,98557.81
2022-12-05T19:11:15.287Z,98561.03
2022-12-05T19:13:42.070Z,98558.66
2022-12-05T19:16:10.105Z,98562.94
2022-12-05T19:18:36.709Z,98567.47
2022-12-05T19:21:03.249Z,98567.47
2022-12-05T19:23:32.400Z,98568.56
2022-12-05T19:26:02.978Z,98570.44
2022-12-05T19:28:29.420Z,98574.72
2022-12-05T19:31:03.263Z,98574.44
2022-12-05T19:33:31.370Z,98569.91
2022-12-05T19:36:01.797Z,98576.59
2022-12-05T19:38:31.302Z,98572.06
2022-12-05T19:40:57.920Z,98575.81
2022-12-05T19:43:24.379Z,98572.31
2022-12-05T19:45:52.074Z,98570.97
2022-12-05T19:48:18.927Z,98578.69
2022-12-05T19:50:45.399Z,98573.66
2022-12-05T19:53:12.329Z,98572.88
2022-12-05T19:55:38.884Z,98565.66
2022-12-05T19:58:05.331Z,98569.94
2022-12-05T20:00:32.192Z,98573.69
2022-12-05T20:02:59.056Z,98572.88
2022-12-05T20:05:25.789Z,98570.72
2022-12-05T20:07:52.355Z,98571.00
2022-12-05T20:10:18.830Z,98564.31
2022-12-05T20:12:45.286Z,98564.03
2022-12-05T20:15:11.746Z,98562.69
2022-12-05T20:17:38.199Z,98564.06
2022-12-05T20:20:05.099Z,98565.09
2022-12-05T20:22:31.592Z,98569.91
2022-12-05T20:24:58.073Z,98572.88
2022-12-05T20:27:24.538Z,98573.91
2022-12-05T20:29:51.043Z,98578.47
2022-12-05T20:32:17.495Z,98580.91
2022-12-05T20:34:44.014Z,98576.38
2022-12-05T20:37:11.366Z,98574.22
2022-12-05T20:39:37.817Z,98571.53
2022-12-05T20:42:04.755Z,98572.63
2022-12-05T20:44:31.242Z,98571.81
2022-12-05T20:46:57.950Z,98567.78
2022-12-05T20:49:24.397Z,98571.03
2022-12-05T20:51:50.861Z,98566.72
2022-12-05T20:54:18.206Z,98569.41
2022-12-05T20:56:45.458Z,98568.34
2022-12-05T20:59:12.413Z,98569.94
2022-12-05T21:01:39.598Z,98569.66
2022-12-05T21:04:06.851Z,98565.13
2022-12-05T21:06:37.994Z,98563.25
2022-12-05T21:09:06.420Z,98566.72
2022-12-05T21:11:32.890Z,98562.47
2022-12-05T21:14:05.041Z,98565.66
2022-12-05T21:16:31.609Z,98563.22
2022-12-05T21:18:58.825Z,98559.47
2022-12-05T21:21:25.981Z,98561.09
2022-12-05T21:23:56.941Z,98558.75
2022-12-05T21:26:23.892Z,98553.66
2022-12-05T21:28:50.354Z,98546.19
2022-12-05T21:31:19.044Z,98559.53
2022-12-05T21:33:52.835Z,98553.66
2022-12-05T21:36:19.385Z,98552.56
2022-12-05T21:38:48.408Z,98547.47
2022-12-05T21:41:19.112Z,98549.88
2022-12-05T21:43:49.606Z,98560.59
2022-12-05T21:46:19.059Z,98554.72
2022-12-05T21:48:45.690Z,98546.13
2022-12-05T21:51:12.482Z,98552.53
2022-12-05T21:53:38.915Z,98551.22
2022-12-05T21:56:14.578Z,98554.41
2022-12-05T21:58:42.717Z,98556.00
2022-12-05T22:01:10.042Z,98555.75
2022-12-05T22:03:36.620Z,98553.63
2022-12-05T22:06:04.296Z,98554.94
2022-12-05T22:08:30.909Z,98552.53
2022-12-05T22:11:23.230Z,98552.25
2022-12-05T22:13:49.829Z,98550.94
2022-12-05T22:16:16.633Z,98552.25
2022-12-05T22:18:43.190Z,98557.06
2022-12-05T22:21:14.497Z,98559.72
2022-12-05T22:23:41.050Z,98557.59
2022-12-05T22:26:08.572Z,98560.81
2022-12-05T22:28:35.097Z,98561.31
2022-12-05T22:31:03.893Z,98560.75
2022-12-05T22:33:31.525Z,98561.03
2022-12-05T22:35:59.341Z,98555.41
2022-12-05T22:38:26.778Z,98545.78
2022-12-05T22:40:57.153Z,98552.47
2022-12-05T22:43:23.949Z,98539.66
2022-12-05T22:45:50.826Z,98544.19
2022-12-05T22:48:17.359Z,98540.97
2022-12-05T22:50:51.940Z,98541.50
2022-12-05T22:53:19.288Z,98543.63
2022-12-05T22:55:45.739Z,98545.75
2022-12-05T22:58:12.181Z,98541.50
2022-12-05T23:00:38.697Z,98540.94
2022-12-05T23:03:05.235Z,98537.47
2022-12-05T23:05:31.775Z,98538.81
2022-12-05T23:07:58.292Z,98537.47
2022-12-05T23:10:24.864Z,98535.06
2022-12-05T23:12:51.337Z,98526.50
2022-12-05T23:15:17.880Z,98525.94
2022-12-05T23:17:46.326Z,98535.25
2022-12-05T23:20:12.800Z,98532.31
2022-12-05T23:22:39.249Z,98530.19
2022-12-05T23:25:05.897Z,98525.06
2022-12-05T23:27:32.365Z,98525.03
2022-12-05T23:29:59.170Z,98531.97
2022-12-05T23:32:26.095Z,98533.59
2022-12-05T23:34:52.665Z,98533.84
2022-12-05T23:37:19.428Z,98526.38
2022-12-05T23:39:45.939Z,98519.97
2022-12-05T23:42:15.325Z,98520.25
2022-12-05T23:44:42.357Z,98526.78
2022-12-05T23:47:08.872Z,98531.22
2022-12-05T23:49:35.352Z,98530.97
2022-12-05T23:52:01.949Z,98529.34
2022-12-05T23:54:28.433Z,98523.47
2022-12-05T23:56:55.099Z,98525.63
2022-12-05T23:59:21.573Z,98523.19
